createdAt,value
2019-03-28T00:01:09.756Z,10.00
2019-03-28T00:03:39.921Z,10.00
2019-03-28T00:06:10.073Z,9.90
2019-03-28T00:08:40.153Z,10.00
2019-03-28T00:11:10.293Z,9.90
2019-03-28T00:13:40.441Z,9.90
2019-03-28T00:16:10.606Z,9.90
2019-03-28T00:18:40.765Z,9.80
2019-03-28T00:21:10.901Z,9.90
2019-03-28T00:23:52.670Z,9.90
2019-03-28T00:26:30.125Z,10.00
2019-03-28T00:28:54.775Z,10.00
2019-03-28T00:31:24.852Z,9.90
2019-03-28T00:33:54.980Z,10.00
2019-03-28T00:36:25.080Z,10.00
2019-03-28T00:38:55.204Z,10.00
2019-03-28T00:41:25.365Z,10.00
2019-03-28T00:43:55.487Z,10.00
2019-03-28T00:46:25.577Z,9.90
2019-03-28T00:48:55.689Z,9.80
2019-03-28T00:51:25.864Z,9.80
2019-03-28T00:53:56.141Z,9.80
2019-03-28T00:56:26.460Z,9.80
2019-03-28T00:58:56.689Z,9.80
2019-03-28T01:01:26.770Z,9.80
2019-03-28T01:03:56.901Z,9.80
2019-03-28T01:06:27.065Z,9.90
2019-03-28T01:08:57.165Z,10.00
2019-03-28T01:11:27.318Z,9.90
2019-03-28T01:13:57.451Z,9.80
2019-03-28T01:16:27.594Z,9.80
2019-03-28T01:18:57.809Z,9.80
2019-03-28T01:21:27.958Z,9.80
2019-03-28T01:23:58.428Z,9.80
2019-03-28T01:26:28.531Z,9.80
2019-03-28T01:28:58.717Z,9.80
2019-03-28T01:31:28.979Z,9.70
2019-03-28T01:33:59.152Z,9.70
2019-03-28T01:36:29.290Z,9.60
2019-03-28T01:38:59.472Z,9.70
2019-03-28T01:41:29.699Z,9.70
2019-03-28T01:43:59.805Z,9.70
2019-03-28T01:46:30.046Z,9.90
2019-03-28T01:49:03.512Z,9.80
2019-03-28T01:51:32.305Z,9.70
2019-03-28T01:54:03.343Z,9.80
2019-03-28T01:56:33.747Z,9.80
2019-03-28T01:59:04.159Z,9.80
2019-03-28T02:01:34.296Z,10.00
2019-03-28T02:04:05.844Z,10.10
2019-03-28T02:06:36.174Z,10.00
2019-03-28T02:09:07.319Z,9.90
2019-03-28T02:11:37.583Z,9.90
2019-03-28T02:14:07.919Z,9.70
2019-03-28T02:16:38.175Z,9.70
2019-03-28T02:19:08.405Z,9.70
2019-03-28T02:21:38.688Z,9.60
2019-03-28T02:24:09.116Z,9.50
2019-03-28T02:26:39.307Z,9.60
2019-03-28T02:29:09.648Z,9.70
2019-03-28T02:31:39.888Z,9.70
2019-03-28T02:34:10.074Z,9.70
2019-03-28T02:36:40.352Z,9.80
2019-03-28T02:39:10.627Z,9.80
2019-03-28T02:41:41.068Z,9.80
2019-03-28T02:44:11.962Z,9.80
2019-03-28T02:46:42.551Z,9.90
2019-03-28T02:49:12.874Z,9.80
2019-03-28T02:51:43.203Z,9.70
2019-03-28T02:54:13.422Z,9.70
2019-03-28T02:56:43.717Z,9.70
2019-03-28T02:59:16.788Z,9.80
2019-03-28T03:01:47.234Z,9.60
2019-03-28T03:04:17.605Z,9.60
2019-03-28T03:06:50.176Z,9.60
2019-03-28T03:09:20.674Z,9.50
2019-03-28T03:11:52.028Z,9.50
2019-03-28T03:14:22.752Z,9.50
2019-03-28T03:17:15.759Z,9.50
2019-03-28T03:19:46.379Z,9.50
2019-03-28T03:22:16.864Z,9.30
2019-03-28T03:27:57.579Z,9.40
2019-03-28T03:30:25.725Z,9.40
2019-03-28T03:32:58.170Z,9.40
2019-03-28T03:35:53.314Z,9.40
2019-03-28T03:38:27.903Z,9.50
2019-03-28T03:41:20.087Z,9.50
2019-03-28T03:43:55.761Z,9.50
2019-03-28T03:46:26.058Z,9.50
2019-03-28T03:48:56.795Z,9.50
2019-03-28T03:51:27.173Z,9.40
2019-03-28T03:53:57.540Z,9.40
2019-03-28T03:56:28.075Z,9.40
2019-03-28T03:59:01.316Z,9.40
2019-03-28T04:01:31.580Z,9.30
2019-03-28T04:04:01.845Z,9.30
2019-03-28T04:06:32.197Z,9.30
2019-03-28T04:09:02.765Z,9.20
2019-03-28T04:11:33.660Z,9.30
2019-03-28T04:14:04.207Z,9.30
2019-03-28T04:19:24.021Z,9.20
2019-03-28T04:21:54.354Z,9.30
2019-03-28T04:24:24.652Z,9.20
2019-03-28T04:26:54.887Z,9.30
2019-03-28T04:29:25.145Z,9.20
2019-03-28T04:31:55.486Z,9.20
2019-03-28T04:37:54.534Z,9.30
2019-03-28T04:40:25.105Z,9.20
2019-03-28T04:42:55.564Z,9.20
2019-03-28T04:45:56.886Z,9.20
2019-03-28T04:55:10.343Z,9.30
2019-03-28T04:57:41.244Z,9.20
2019-03-28T05:00:12.790Z,9.20
2019-03-28T05:02:45.913Z,9.10
2019-03-28T05:05:15.218Z,9.10
2019-03-28T05:07:45.714Z,9.00
2019-03-28T05:10:16.147Z,9.10
2019-03-28T05:12:46.619Z,9.10
2019-03-28T05:15:20.133Z,9.10
2019-03-28T05:17:50.855Z,9.10
2019-03-28T05:20:21.464Z,9.10
2019-03-28T05:22:52.369Z,9.00
2019-03-28T05:25:24.373Z,9.00
2019-03-28T05:27:57.193Z,9.10
2019-03-28T05:30:27.851Z,9.00
2019-03-28T05:33:43.455Z,9.00
2019-03-28T05:36:57.954Z,9.10
2019-03-28T05:39:28.839Z,9.20
2019-03-28T05:41:59.753Z,9.20
2019-03-28T05:44:30.106Z,9.10
2019-03-28T05:47:00.656Z,9.10
2019-03-28T05:49:31.523Z,9.00
2019-03-28T05:52:26.850Z,9.00
2019-03-28T05:54:57.122Z,9.10
2019-03-28T05:58:09.426Z,9.20
2019-03-28T06:00:42.612Z,9.20
2019-03-28T06:03:16.663Z,9.20
2019-03-28T06:05:47.530Z,9.10
2019-03-28T06:08:19.182Z,9.10
2019-03-28T06:10:49.539Z,9.10
2019-03-28T06:13:19.846Z,9.20
2019-03-28T06:15:50.431Z,9.30
2019-03-28T06:18:21.000Z,9.40
2019-03-28T06:21:10.164Z,9.40
2019-03-28T06:23:41.463Z,9.50
2019-03-28T06:26:12.050Z,9.40
2019-03-28T06:28:42.598Z,9.40
2019-03-28T06:31:12.936Z,9.50
2019-03-28T06:33:43.141Z,9.70
2019-03-28T06:36:14.346Z,9.80
2019-03-28T06:38:51.332Z,9.60
2019-03-28T06:41:46.982Z,9.60
2019-03-28T06:45:15.744Z,9.70
2019-03-28T06:47:52.728Z,9.90
2019-03-28T06:50:57.459Z,10.00
2019-03-28T06:54:24.202Z,10.00
2019-03-28T06:57:10.679Z,10.00
2019-03-28T07:08:38.478Z,10.00
2019-03-28T07:25:44.903Z,10.00
2019-03-28T07:29:11.874Z,10.20
2019-03-28T07:32:30.514Z,9.80
2019-03-28T07:36:00.621Z,9.90
2019-03-28T07:38:49.926Z,9.90
2019-03-28T07:42:35.422Z,9.90
2019-03-28T07:45:18.223Z,10.00
2019-03-28T07:48:00.130Z,10.00
2019-03-28T07:50:46.956Z,10.00
2019-03-28T08:03:50.503Z,10.20
2019-03-28T08:06:50.001Z,10.30
2019-03-28T08:09:42.258Z,10.40
2019-03-28T08:12:23.283Z,10.70
2019-03-28T08:15:14.572Z,10.80
2019-03-28T08:17:53.349Z,10.90
2019-03-28T08:21:30.452Z,11.10
2019-03-28T08:24:56.591Z,11.40
2019-03-28T08:27:57.657Z,11.50
2019-03-28T08:30:45.160Z,11.70
2019-03-28T08:33:23.068Z,11.90
2019-03-28T08:36:33.950Z,12.00
2019-03-28T08:39:44.551Z,12.20
2019-03-28T08:51:32.885Z,12.10
2019-03-28T08:53:24.027Z,12.30
2019-03-28T08:56:34.284Z,12.30
2019-03-28T09:03:05.984Z,12.70
2019-03-28T09:05:36.473Z,13.00
2019-03-28T09:08:08.808Z,13.20
2019-03-28T09:10:38.990Z,13.10
2019-03-28T09:13:28.585Z,13.00
2019-03-28T09:16:17.812Z,12.90
2019-03-28T09:18:47.471Z,12.90
2019-03-28T09:21:24.411Z,13.00
2019-03-28T09:23:55.347Z,13.00
2019-03-28T09:26:26.087Z,13.20
2019-03-28T09:31:46.281Z,13.50
2019-03-28T09:34:20.399Z,13.80
2019-03-28T09:36:51.392Z,13.80
2019-03-28T09:39:25.224Z,13.80
2019-03-28T09:41:57.621Z,13.90
2019-03-28T09:44:38.791Z,14.00
2019-03-28T09:47:09.418Z,13.90
2019-03-28T09:49:39.863Z,14.00
2019-03-28T09:52:10.456Z,13.90
2019-03-28T09:54:57.348Z,13.90
2019-03-28T09:57:27.167Z,13.70
2019-03-28T10:02:25.917Z,13.30
2019-03-28T10:04:56.577Z,13.80
2019-03-28T10:07:29.944Z,14.00
2019-03-28T10:10:02.991Z,14.10
2019-03-28T10:13:28.411Z,14.10
2019-03-28T10:15:57.522Z,14.30
2019-03-28T10:18:30.554Z,14.20
2019-03-28T10:24:19.256Z,14.10
2019-03-28T10:27:13.602Z,14.10
2019-03-28T10:29:51.603Z,14.30
2019-03-28T10:33:26.788Z,14.30
2019-03-28T10:36:03.110Z,14.40
2019-03-28T10:38:38.216Z,13.90
2019-03-28T10:41:10.242Z,14.20
2019-03-28T10:44:01.589Z,14.10
2019-03-28T10:47:07.479Z,14.40
2019-03-28T10:49:58.852Z,14.50
2019-03-28T10:52:38.083Z,14.50
2019-03-28T10:55:16.651Z,14.60
2019-03-28T10:58:02.406Z,14.40
2019-03-28T11:00:42.982Z,14.20
2019-03-28T11:03:36.158Z,14.30
2019-03-28T11:06:49.566Z,14.40
2019-03-28T11:09:29.794Z,14.60
2019-03-28T11:15:18.821Z,14.90
2019-03-28T11:27:36.414Z,14.40
2019-03-28T11:30:08.119Z,14.40
2019-03-28T11:32:38.279Z,14.40
2019-03-28T11:35:09.162Z,14.30
2019-03-28T11:37:39.259Z,14.20
2019-03-28T11:40:10.230Z,14.20
2019-03-28T11:42:40.896Z,14.40
2019-03-28T11:45:11.587Z,14.10
2019-03-28T11:47:41.647Z,14.30
2019-03-28T11:50:12.840Z,14.10
2019-03-28T11:52:43.108Z,14.00
2019-03-28T11:55:13.610Z,14.00
2019-03-28T11:57:43.826Z,14.00
2019-03-28T12:00:17.000Z,13.80
2019-03-28T12:02:47.274Z,14.00
2019-03-28T12:05:17.972Z,13.90
2019-03-28T12:07:48.115Z,13.90
2019-03-28T12:10:19.666Z,13.90
2019-03-28T12:12:49.968Z,14.10
2019-03-28T12:15:20.101Z,14.20
2019-03-28T12:17:50.441Z,14.40
2019-03-28T12:20:20.735Z,14.50
2019-03-28T12:22:59.536Z,14.60
2019-03-28T12:25:29.881Z,14.60
2019-03-28T12:28:00.553Z,14.70
2019-03-28T12:30:30.917Z,14.30
2019-03-28T12:33:01.139Z,14.60
2019-03-28T12:35:31.194Z,14.60
2019-03-28T12:38:02.058Z,14.50
2019-03-28T12:44:04.991Z,14.20
2019-03-28T12:46:40.074Z,14.30
2019-03-28T12:49:10.717Z,14.40
2019-03-28T12:51:40.840Z,14.50
2019-03-28T12:54:11.028Z,14.70
2019-03-28T12:56:41.138Z,14.60
2019-03-28T12:59:11.526Z,14.50
2019-03-28T13:01:41.697Z,14.50
2019-03-28T13:04:11.821Z,14.50
2019-03-28T13:06:41.973Z,14.50
2019-03-28T13:09:12.376Z,14.50
2019-03-28T13:11:42.649Z,14.50
2019-03-28T13:14:12.730Z,14.30
2019-03-28T13:16:42.935Z,14.20
2019-03-28T13:19:13.087Z,14.10
2019-03-28T13:21:43.339Z,14.20
2019-03-28T13:24:13.397Z,14.20
2019-03-28T13:26:43.588Z,14.10
2019-03-28T13:29:13.725Z,14.40
2019-03-28T13:31:44.173Z,14.30
2019-03-28T13:34:14.321Z,14.30
2019-03-28T13:36:44.444Z,14.50
2019-03-28T13:39:14.508Z,14.50
2019-03-28T13:41:45.457Z,14.50
2019-03-28T13:44:16.120Z,14.70
2019-03-28T13:46:46.324Z,14.90
2019-03-28T13:49:16.436Z,14.90
2019-03-28T13:51:46.567Z,14.90
2019-03-28T13:54:16.770Z,15.10
2019-03-28T13:56:46.828Z,15.10
2019-03-28T13:59:17.133Z,15.10
2019-03-28T14:01:47.338Z,14.70
2019-03-28T14:04:17.444Z,14.90
2019-03-28T14:06:47.636Z,14.60
2019-03-28T14:09:17.679Z,14.60
2019-03-28T14:11:47.769Z,14.70
2019-03-28T14:14:17.887Z,14.60
2019-03-28T14:16:48.094Z,14.80
2019-03-28T14:19:18.084Z,14.80
2019-03-28T14:21:48.324Z,14.70
2019-03-28T14:24:18.511Z,14.60
2019-03-28T14:26:48.565Z,14.50
2019-03-28T14:29:18.679Z,14.60
2019-03-28T14:31:48.939Z,14.70
2019-03-28T14:34:18.991Z,14.80
2019-03-28T14:36:49.079Z,14.80
2019-03-28T14:39:19.125Z,14.60
2019-03-28T14:41:49.298Z,14.40
2019-03-28T14:44:19.325Z,14.30
2019-03-28T14:46:49.386Z,14.30
2019-03-28T14:49:19.485Z,14.30
2019-03-28T14:52:33.016Z,14.30
2019-03-28T14:55:06.443Z,14.20
2019-03-28T14:57:37.376Z,13.80
2019-03-28T15:00:10.466Z,13.70
2019-03-28T15:02:40.594Z,13.70
2019-03-28T15:05:10.701Z,13.60
2019-03-28T15:07:40.771Z,13.60
2019-03-28T15:10:11.210Z,13.60
2019-03-28T15:12:43.329Z,13.50
2019-03-28T15:15:13.819Z,13.40
2019-03-28T15:17:45.127Z,13.40
2019-03-28T15:20:15.302Z,13.40
2019-03-28T15:22:45.443Z,13.30
2019-03-28T15:25:15.578Z,13.40
2019-03-28T15:27:45.680Z,13.40
2019-03-28T15:30:16.127Z,13.30
2019-03-28T15:32:46.220Z,13.30
2019-03-28T15:35:16.486Z,13.40
2019-03-28T15:37:47.367Z,13.40
2019-03-28T15:40:17.781Z,13.50
2019-03-28T15:42:48.290Z,13.50
2019-03-28T15:45:18.400Z,13.50
2019-03-28T15:47:51.828Z,13.40
2019-03-28T15:50:20.252Z,13.40
2019-03-28T15:52:50.369Z,13.40
2019-03-28T15:55:20.400Z,13.40
2019-03-28T15:57:50.477Z,13.20
2019-03-28T16:00:20.624Z,13.20
2019-03-28T16:02:50.816Z,13.20
2019-03-28T16:05:21.061Z,13.00
2019-03-28T16:07:51.204Z,13.00
2019-03-28T16:10:21.274Z,13.00
2019-03-28T16:12:51.420Z,13.00
2019-03-28T16:15:22.447Z,13.00
2019-03-28T16:17:52.694Z,12.90
2019-03-28T16:20:23.695Z,13.00
2019-03-28T16:22:53.870Z,13.10
2019-03-28T16:25:24.163Z,13.00
2019-03-28T16:27:54.313Z,13.00
2019-03-28T16:30:36.808Z,13.00
2019-03-28T16:33:07.572Z,12.90
2019-03-28T16:35:37.656Z,12.80
2019-03-28T16:38:07.679Z,12.70
2019-03-28T16:40:41.499Z,12.80
2019-03-28T16:43:11.489Z,12.80
2019-03-28T16:45:41.689Z,12.80
2019-03-28T16:48:40.458Z,12.80
2019-03-28T16:51:10.429Z,12.80
2019-03-28T16:53:40.786Z,12.80
2019-03-28T16:56:10.819Z,12.80
2019-03-28T16:58:41.042Z,12.70
2019-03-28T17:01:11.162Z,12.60
2019-03-28T17:03:41.199Z,12.60
2019-03-28T17:06:11.787Z,12.60
2019-03-28T17:08:43.727Z,12.50
2019-03-28T17:11:14.076Z,12.40
2019-03-28T17:14:03.003Z,12.40
2019-03-28T17:16:33.287Z,12.30
2019-03-28T17:19:03.704Z,12.20
2019-03-28T17:21:33.753Z,12.20
2019-03-28T17:24:04.077Z,12.20
2019-03-28T17:26:34.238Z,12.10
2019-03-28T17:29:04.375Z,12.10
2019-03-28T17:31:34.493Z,12.20
2019-03-28T17:34:04.626Z,12.20
2019-03-28T17:36:34.828Z,12.30
2019-03-28T17:39:05.896Z,12.30
2019-03-28T17:41:36.047Z,12.10
2019-03-28T17:44:15.392Z,12.10
2019-03-28T17:46:45.658Z,12.10
2019-03-28T17:49:15.870Z,12.10
2019-03-28T17:51:46.006Z,12.10
2019-03-28T17:54:19.077Z,12.20
2019-03-28T17:56:49.311Z,12.00
2019-03-28T17:59:19.460Z,12.20
2019-03-28T18:01:49.590Z,12.10
2019-03-28T18:04:22.997Z,12.00
2019-03-28T18:06:51.523Z,12.00
2019-03-28T18:09:21.922Z,12.00
2019-03-28T18:11:52.049Z,12.00
2019-03-28T18:14:22.157Z,12.00
2019-03-28T18:16:52.337Z,12.00
2019-03-28T18:19:22.565Z,12.00
2019-03-28T18:22:02.735Z,11.90
2019-03-28T18:24:24.494Z,11.80
2019-03-28T18:26:54.609Z,11.80
2019-03-28T18:29:24.857Z,11.80
2019-03-28T18:31:55.020Z,11.80
2019-03-28T18:34:25.151Z,11.90
2019-03-28T18:36:55.315Z,12.00
2019-03-28T18:39:25.510Z,11.90
2019-03-28T18:41:56.702Z,11.80
2019-03-28T18:44:26.973Z,11.80
2019-03-28T18:46:57.116Z,11.80
2019-03-28T18:49:27.250Z,11.70
2019-03-28T18:51:58.050Z,11.70
2019-03-28T18:54:28.220Z,11.70
2019-03-28T18:56:58.396Z,11.60
2019-03-28T18:59:28.421Z,11.60
2019-03-28T19:01:58.879Z,11.70
2019-03-28T19:04:29.023Z,11.60
2019-03-28T19:06:59.060Z,11.60
2019-03-28T19:09:29.325Z,11.60
2019-03-28T19:11:59.591Z,11.50
2019-03-28T19:14:29.897Z,11.50
2019-03-28T19:16:59.948Z,11.50
2019-03-28T19:19:39.350Z,11.50
2019-03-28T19:22:02.108Z,11.50
2019-03-28T19:24:32.261Z,11.50
2019-03-28T19:27:03.504Z,11.60
2019-03-28T19:29:33.594Z,11.60
2019-03-28T19:32:04.735Z,11.60
2019-03-28T19:34:34.978Z,11.60
2019-03-28T19:37:05.065Z,11.60
2019-03-28T19:39:36.589Z,11.60
2019-03-28T19:42:06.971Z,11.60
2019-03-28T19:44:37.449Z,11.60
2019-03-28T19:47:07.579Z,11.50
2019-03-28T19:49:37.783Z,11.50
2019-03-28T19:52:13.120Z,11.50
2019-03-28T19:54:42.049Z,11.50
2019-03-28T19:57:13.007Z,11.50
2019-03-28T19:59:44.423Z,11.60
2019-03-28T20:02:14.666Z,11.60
2019-03-28T20:04:45.033Z,11.60
2019-03-28T20:07:21.572Z,11.50
2019-03-28T20:09:46.881Z,11.50
2019-03-28T20:12:17.461Z,11.40
2019-03-28T20:14:48.195Z,11.50
2019-03-28T20:17:18.390Z,11.40
2019-03-28T20:19:49.350Z,11.40
2019-03-28T20:22:19.504Z,11.40
2019-03-28T20:24:49.832Z,11.70
2019-03-28T20:27:20.122Z,11.80
2019-03-28T20:29:50.223Z,11.70
2019-03-28T20:32:20.304Z,11.70
2019-03-28T20:34:50.380Z,11.60
2019-03-28T20:37:20.784Z,11.90
2019-03-28T20:39:50.969Z,12.00
2019-03-28T20:42:21.115Z,11.90
2019-03-28T20:44:51.233Z,11.90
2019-03-28T20:47:21.429Z,11.90
2019-03-28T20:49:52.972Z,11.80
2019-03-28T20:52:23.195Z,11.80
2019-03-28T20:54:54.199Z,11.60
2019-03-28T20:57:24.303Z,11.40
2019-03-28T20:59:54.429Z,11.30
2019-03-28T21:02:24.470Z,11.30
2019-03-28T21:04:54.604Z,11.10
2019-03-28T21:07:24.783Z,11.20
2019-03-28T21:09:55.893Z,11.40
2019-03-28T21:12:25.946Z,11.50
2019-03-28T21:14:56.036Z,11.50
2019-03-28T21:17:26.143Z,11.50
2019-03-28T21:19:59.295Z,11.40
2019-03-28T21:22:29.399Z,11.30
2019-03-28T21:24:59.516Z,11.20
2019-03-28T21:27:29.624Z,11.10
2019-03-28T21:29:59.606Z,11.20
2019-03-28T21:32:29.641Z,11.20
2019-03-28T21:34:59.754Z,11.20
2019-03-28T21:37:29.758Z,11.10
2019-03-28T21:40:00.931Z,11.00
2019-03-28T21:42:31.585Z,10.90
2019-03-28T21:45:01.664Z,10.80
2019-03-28T21:47:32.116Z,10.80
2019-03-28T21:50:07.862Z,10.80
2019-03-28T21:52:37.991Z,10.70
2019-03-28T21:55:11.464Z,10.70
2019-03-28T21:57:42.607Z,10.60
2019-03-28T22:00:13.378Z,10.60
2019-03-28T22:02:44.086Z,10.50
2019-03-28T22:05:14.239Z,10.40
2019-03-28T22:07:44.264Z,10.40
2019-03-28T22:10:14.695Z,10.40
2019-03-28T22:12:46.155Z,10.30
2019-03-28T22:15:16.296Z,10.50
2019-03-28T22:17:46.446Z,10.60
2019-03-28T22:20:17.838Z,10.80
2019-03-28T22:22:48.313Z,10.90
2019-03-28T22:25:18.466Z,10.80
2019-03-28T22:27:48.796Z,10.70
2019-03-28T22:30:19.063Z,10.60
2019-03-28T22:32:49.990Z,10.60
2019-03-28T22:35:20.243Z,10.60
2019-03-28T22:37:50.508Z,10.50
2019-03-28T22:40:21.121Z,10.60
2019-03-28T22:42:54.469Z,10.60
2019-03-28T22:45:24.696Z,10.70
2019-03-28T22:47:54.886Z,10.70
2019-03-28T22:50:24.933Z,10.70
2019-03-28T22:52:55.094Z,10.70
2019-03-28T22:55:25.147Z,10.70
2019-03-28T22:57:55.238Z,10.70
2019-03-28T23:00:40.456Z,10.80
2019-03-28T23:03:10.626Z,10.80
2019-03-28T23:05:40.662Z,10.80
2019-03-28T23:08:10.701Z,10.80
2019-03-28T23:10:40.760Z,10.80
2019-03-28T23:13:10.810Z,10.70
2019-03-28T23:15:40.923Z,10.60
2019-03-28T23:18:11.382Z,10.60
2019-03-28T23:20:41.460Z,10.60
2019-03-28T23:23:11.550Z,10.60
2019-03-28T23:25:41.652Z,10.50
2019-03-28T23:28:11.940Z,10.60
2019-03-28T23:30:42.119Z,10.60
2019-03-28T23:33:12.358Z,10.60
2019-03-28T23:36:01.307Z,10.50
2019-03-28T23:38:32.906Z,10.50
2019-03-28T23:41:05.142Z,10.50
2019-03-28T23:43:35.966Z,10.50
2019-03-28T23:46:06.699Z,10.40
2019-03-28T23:48:36.987Z,10.30
2019-03-28T23:51:07.175Z,10.30
2019-03-28T23:53:37.300Z,10.30
2019-03-28T23:56:07.529Z,10.30
2019-03-28T23:58:40.303Z,10.30
